sensor_id;sensor_type;location;lat;lon;timestamp;pressure;altitude;pressure_sealevel;temperature;humidity
42297;BME280;72430;47.456;19.016;2024-02-23T00:02:19;98993.34;;;11.17;49.93
42297;BME280;72430;47.456;19.016;2024-02-23T00:05:21;98985.31;;;11.09;49.58
42297;BME280;72430;47.456;19.016;2024-02-23T00:08:23;98986.88;;;10.95;50.30
42297;BME280;72430;47.456;19.016;2024-02-23T00:11:25;98976.06;;;11.11;50.19
42297;BME280;72430;47.456;19.016;2024-02-23T00:14:27;98979.94;;;11.09;50.51
42297;BME280;72430;47.456;19.016;2024-02-23T00:17:29;98976.94;;;10.95;49.92
42297;BME280;72430;47.456;19.016;2024-02-23T00:20:31;98980.81;;;10.93;51.09
42297;BME280;72430;47.456;19.016;2024-02-23T00:23:33;98993.56;;;11.07;50.20
42297;BME280;72430;47.456;19.016;2024-02-23T00:26:35;98991.03;;;11.14;50.23
42297;BME280;72430;47.456;19.016;2024-02-23T00:29:37;99000.94;;;11.13;50.34
42297;BME280;72430;47.456;19.016;2024-02-23T00:32:38;98986.31;;;11.08;50.36
42297;BME280;72430;47.456;19.016;2024-02-23T00:35:40;98990.72;;;11.09;50.63
42297;BME280;72430;47.456;19.016;2024-02-23T00:38:42;98995.91;;;11.10;51.25
42297;BME280;72430;47.456;19.016;2024-02-23T00:41:44;98988.81;;;11.18;50.59
42297;BME280;72430;47.456;19.016;2024-02-23T00:44:46;99002.97;;;11.11;51.25
42297;BME280;72430;47.456;19.016;2024-02-23T00:47:48;98987.31;;;11.15;50.38
42297;BME280;72430;47.456;19.016;2024-02-23T00:50:50;98983.44;;;11.09;50.64
42297;BME280;72430;47.456;19.016;2024-02-23T00:53:52;98992.88;;;11.13;50.62
42297;BME280;72430;47.456;19.016;2024-02-23T00:56:54;98994.38;;;11.16;51.16
42297;BME280;72430;47.456;19.016;2024-02-23T00:59:58;98990.66;;;11.17;52.09
42297;BME280;72430;47.456;19.016;2024-02-23T01:03:00;98981.13;;;11.06;53.16
42297;BME280;72430;47.456;19.016;2024-02-23T01:06:02;98985.28;;;11.17;53.52
42297;BME280;72430;47.456;19.016;2024-02-23T01:09:04;98973.63;;;11.25;53.38
42297;BME280;72430;47.456;19.016;2024-02-23T01:12:06;98976.00;;;11.20;54.06
42297;BME280;72430;47.456;19.016;2024-02-23T01:15:08;98990.63;;;10.85;55.20
42297;BME280;72430;47.456;19.016;2024-02-23T01:18:10;98968.53;;;10.98;56.62
42297;BME280;72430;47.456;19.016;2024-02-23T01:21:12;98966.16;;;10.95;56.80
42297;BME280;72430;47.456;19.016;2024-02-23T01:24:15;98967.03;;;10.96;57.13
42297;BME280;72430;47.456;19.016;2024-02-23T01:27:17;98977.25;;;10.60;59.69
42297;BME280;72430;47.456;19.016;2024-02-23T01:30:19;98991.50;;;10.69;59.95
42297;BME280;72430;47.456;19.016;2024-02-23T01:33:20;98978.94;;;10.45;61.95
42297;BME280;72430;47.456;19.016;2024-02-23T01:36:22;98967.38;;;10.44;63.38
42297;BME280;72430;47.456;19.016;2024-02-23T01:39:24;98960.13;;;10.37;63.36
42297;BME280;72430;47.456;19.016;2024-02-23T01:42:26;98959.94;;;10.38;63.52
42297;BME280;72430;47.456;19.016;2024-02-23T01:45:29;98960.97;;;10.29;64.52
42297;BME280;72430;47.456;19.016;2024-02-23T01:48:32;98949.88;;;10.24;65.13
42297;BME280;72430;47.456;19.016;2024-02-23T01:51:34;98947.50;;;10.29;67.01
42297;BME280;72430;47.456;19.016;2024-02-23T01:54:37;98950.19;;;10.29;66.45
42297;BME280;72430;47.456;19.016;2024-02-23T01:57:39;98956.91;;;10.41;65.78
42297;BME280;72430;47.456;19.016;2024-02-23T02:00:51;98944.31;;;10.25;66.16
42297;BME280;72430;47.456;19.016;2024-02-23T02:03:52;98940.63;;;10.43;65.85
42297;BME280;72430;47.456;19.016;2024-02-23T02:06:55;98945.69;;;10.29;66.74
42297;BME280;72430;47.456;19.016;2024-02-23T02:09:57;98952.44;;;10.17;67.16
42297;BME280;72430;47.456;19.016;2024-02-23T02:13:05;98947.03;;;10.25;68.11
42297;BME280;72430;47.456;19.016;2024-02-23T02:16:07;98935.41;;;10.25;66.27
42297;BME280;72430;47.456;19.016;2024-02-23T02:19:10;98937.09;;;10.17;66.24
42297;BME280;72430;47.456;19.016;2024-02-23T02:22:13;98946.16;;;10.25;67.88
42297;BME280;72430;47.456;19.016;2024-02-23T02:25:14;98940.47;;;10.44;66.85
42297;BME280;72430;47.456;19.016;2024-02-23T02:28:17;98942.63;;;10.32;67.21
42297;BME280;72430;47.456;19.016;2024-02-23T02:31:19;98952.56;;;10.24;67.69
42297;BME280;72430;47.456;19.016;2024-02-23T02:34:21;98939.59;;;10.36;67.70
42297;BME280;72430;47.456;19.016;2024-02-23T02:37:23;98942.81;;;10.23;68.07
42297;BME280;72430;47.456;19.016;2024-02-23T02:40:24;98940.09;;;10.31;68.13
42297;BME280;72430;47.456;19.016;2024-02-23T02:43:27;98931.91;;;10.16;70.29
42297;BME280;72430;47.456;19.016;2024-02-23T02:46:29;98938.44;;;10.30;70.68
42297;BME280;72430;47.456;19.016;2024-02-23T02:49:31;98941.16;;;10.21;69.76
42297;BME280;72430;47.456;19.016;2024-02-23T02:52:32;98942.50;;;10.17;69.93
42297;BME280;72430;47.456;19.016;2024-02-23T02:55:34;98947.53;;;10.12;69.69
42297;BME280;72430;47.456;19.016;2024-02-23T02:58:36;98943.47;;;10.25;70.07
42297;BME280;72430;47.456;19.016;2024-02-23T03:01:38;98942.84;;;10.06;70.62
42297;BME280;72430;47.456;19.016;2024-02-23T03:04:47;98949.06;;;9.98;73.01
42297;BME280;72430;47.456;19.016;2024-02-23T03:07:49;98946.19;;;10.00;72.60
42297;BME280;72430;47.456;19.016;2024-02-23T03:10:51;98941.19;;;9.97;74.36
42297;BME280;72430;47.456;19.016;2024-02-23T03:13:52;98938.31;;;10.06;72.48
42297;BME280;72430;47.456;19.016;2024-02-23T03:16:54;98949.06;;;10.06;73.31
42297;BME280;72430;47.456;19.016;2024-02-23T03:19:56;98947.06;;;10.00;73.23
42297;BME280;72430;47.456;19.016;2024-02-23T03:22:59;98951.75;;;9.90;75.40
42297;BME280;72430;47.456;19.016;2024-02-23T03:26:03;98947.72;;;10.02;75.49
42297;BME280;72430;47.456;19.016;2024-02-23T03:29:04;98953.78;;;9.88;75.87
42297;BME280;72430;47.456;19.016;2024-02-23T03:32:07;98952.28;;;9.85;76.30
42297;BME280;72430;47.456;19.016;2024-02-23T03:35:09;98952.59;;;9.82;75.96
42297;BME280;72430;47.456;19.016;2024-02-23T03:38:11;98937.47;;;9.81;77.24
42297;BME280;72430;47.456;19.016;2024-02-23T03:41:14;98960.00;;;9.80;76.10
42297;BME280;72430;47.456;19.016;2024-02-23T03:44:16;98952.44;;;9.84;76.85
42297;BME280;72430;47.456;19.016;2024-02-23T03:47:18;98949.91;;;9.82;76.22
42297;BME280;72430;47.456;19.016;2024-02-23T03:50:20;98955.13;;;9.84;76.88
42297;BME280;72430;47.456;19.016;2024-02-23T03:53:21;98948.41;;;9.71;78.35
42297;BME280;72430;47.456;19.016;2024-02-23T03:56:23;98945.69;;;9.79;76.27
42297;BME280;72430;47.456;19.016;2024-02-23T03:59:25;98954.47;;;9.82;76.40
42297;BME280;72430;47.456;19.016;2024-02-23T04:02:27;98954.44;;;9.90;76.32
42297;BME280;72430;47.456;19.016;2024-02-23T04:05:29;98952.59;;;9.99;75.83
42297;BME280;72430;47.456;19.016;2024-02-23T04:08:31;98959.47;;;10.01;76.41
42297;BME280;72430;47.456;19.016;2024-02-23T04:11:33;98957.66;;;10.02;75.98
42297;BME280;72430;47.456;19.016;2024-02-23T04:14:35;98972.91;;;10.10;75.53
42297;BME280;72430;47.456;19.016;2024-02-23T04:17:38;98956.44;;;10.04;74.41
42297;BME280;72430;47.456;19.016;2024-02-23T04:20:40;98947.88;;;10.17;75.83
42297;BME280;72430;47.456;19.016;2024-02-23T04:23:43;98965.38;;;10.05;75.19
42297;BME280;72430;47.456;19.016;2024-02-23T04:26:45;98980.63;;;10.04;75.43
42297;BME280;72430;47.456;19.016;2024-02-23T04:29:46;98988.03;;;10.19;74.79
42297;BME280;72430;47.456;19.016;2024-02-23T04:32:48;98959.97;;;10.13;75.25
42297;BME280;72430;47.456;19.016;2024-02-23T04:35:50;98959.31;;;10.19;75.16
42297;BME280;72430;47.456;19.016;2024-02-23T04:38:52;98960.16;;;10.12;75.82
42297;BME280;72430;47.456;19.016;2024-02-23T04:41:54;98958.81;;;10.07;76.24
42297;BME280;72430;47.456;19.016;2024-02-23T04:44:56;98967.53;;;10.18;75.72
42297;BME280;72430;47.456;19.016;2024-02-23T04:47:57;98967.53;;;10.18;75.45
42297;BME280;72430;47.456;19.016;2024-02-23T04:50:59;98970.56;;;10.15;74.26
42297;BME280;72430;47.456;19.016;2024-02-23T04:54:01;98963.84;;;10.19;74.38
42297;BME280;72430;47.456;19.016;2024-02-23T04:57:04;98965.19;;;10.15;73.84
42297;BME280;72430;47.456;19.016;2024-02-23T05:00:06;98987.53;;;10.15;73.74
42297;BME280;72430;47.456;19.016;2024-02-23T05:03:11;98968.56;;;10.17;74.53
42297;BME280;72430;47.456;19.016;2024-02-23T05:06:14;98973.75;;;10.18;74.44
42297;BME280;72430;47.456;19.016;2024-02-23T05:09:16;98973.91;;;10.25;72.83
42297;BME280;72430;47.456;19.016;2024-02-23T05:12:18;98984.16;;;10.13;73.36
42297;BME280;72430;47.456;19.016;2024-02-23T05:15:19;98986.88;;;10.21;74.70
42297;BME280;72430;47.456;19.016;2024-02-23T05:18:21;98992.56;;;10.18;75.16
42297;BME280;72430;47.456;19.016;2024-02-23T05:21:23;98987.19;;;10.27;74.56
42297;BME280;72430;47.456;19.016;2024-02-23T05:24:25;99005.84;;;10.03;75.12
42297;BME280;72430;47.456;19.016;2024-02-23T05:27:27;99003.69;;;9.99;76.42
42297;BME280;72430;47.456;19.016;2024-02-23T05:30:29;99007.38;;;10.06;76.17
42297;BME280;72430;47.456;19.016;2024-02-23T05:33:33;99014.41;;;9.82;78.31
42297;BME280;72430;47.456;19.016;2024-02-23T05:36:35;99027.34;;;9.78;78.81
42297;BME280;72430;47.456;19.016;2024-02-23T05:39:36;99025.84;;;10.01;78.14
42297;BME280;72430;47.456;19.016;2024-02-23T05:42:39;99025.34;;;9.97;78.79
42297;BME280;72430;47.456;19.016;2024-02-23T05:45:41;99030.88;;;9.96;77.80
42297;BME280;72430;47.456;19.016;2024-02-23T05:48:43;99043.16;;;9.82;78.29
42297;BME280;72430;47.456;19.016;2024-02-23T05:51:45;99048.34;;;9.66;80.37
42297;BME280;72430;47.456;19.016;2024-02-23T05:54:47;99061.28;;;9.71;79.59
42297;BME280;72430;47.456;19.016;2024-02-23T05:57:52;99057.06;;;9.69;80.95
42297;BME280;72430;47.456;19.016;2024-02-23T06:00:54;99073.03;;;9.78;79.65
42297;BME280;72430;47.456;19.016;2024-02-23T06:03:56;99069.34;;;9.79;79.70
42297;BME280;72430;47.456;19.016;2024-02-23T06:06:57;99070.69;;;9.75;79.98
42297;BME280;72430;47.456;19.016;2024-02-23T06:10:00;99076.06;;;9.75;81.17
42297;BME280;72430;47.456;19.016;2024-02-23T06:13:02;99082.47;;;9.83;81.45
42297;BME280;72430;47.456;19.016;2024-02-23T06:16:10;99080.75;;;9.73;81.43
42297;BME280;72430;47.456;19.016;2024-02-23T06:19:12;99083.41;;;9.65;82.72
42297;BME280;72430;47.456;19.016;2024-02-23T06:22:14;99094.66;;;9.60;85.28
42297;BME280;72430;47.456;19.016;2024-02-23T06:25:18;99103.41;;;9.71;83.58
42297;BME280;72430;47.456;19.016;2024-02-23T06:28:20;99101.88;;;9.68;84.39
42297;BME280;72430;47.456;19.016;2024-02-23T06:31:22;99098.53;;;9.66;85.06
42297;BME280;72430;47.456;19.016;2024-02-23T06:34:23;99097.88;;;9.64;85.50
42297;BME280;72430;47.456;19.016;2024-02-23T06:37:25;99104.22;;;9.54;86.68
42297;BME280;72430;47.456;19.016;2024-02-23T06:40:27;99094.31;;;9.55;86.19
42297;BME280;72430;47.456;19.016;2024-02-23T06:43:46;99099.34;;;9.58;88.40
42297;BME280;72430;47.456;19.016;2024-02-23T06:46:47;99104.41;;;9.61;88.88
42297;BME280;72430;47.456;19.016;2024-02-23T06:49:49;99102.31;;;9.47;89.30
42297;BME280;72430;47.456;19.016;2024-02-23T06:52:51;99109.56;;;9.54;89.24
42297;BME280;72430;47.456;19.016;2024-02-23T06:55:53;99106.59;;;9.58;89.00
42297;BME280;72430;47.456;19.016;2024-02-23T06:58:54;99108.25;;;9.59;88.43
42297;BME280;72430;47.456;19.016;2024-02-23T07:01:56;99114.00;;;9.64;89.94
42297;BME280;72430;47.456;19.016;2024-02-23T07:04:58;99114.06;;;9.46;90.09
42297;BME280;72430;47.456;19.016;2024-02-23T07:08:04;99114.94;;;9.54;90.63
42297;BME280;72430;47.456;19.016;2024-02-23T07:11:06;99114.09;;;9.54;91.08
42297;BME280;72430;47.456;19.016;2024-02-23T07:14:08;99116.16;;;9.60;90.33
42297;BME280;72430;47.456;19.016;2024-02-23T07:17:10;99115.84;;;9.72;90.05
42297;BME280;72430;47.456;19.016;2024-02-23T07:20:13;99123.69;;;9.57;90.26
42297;BME280;72430;47.456;19.016;2024-02-23T07:23:15;99125.03;;;9.61;90.53
42297;BME280;72430;47.456;19.016;2024-02-23T07:26:17;99128.09;;;9.66;90.27
42297;BME280;72430;47.456;19.016;2024-02-23T07:29:22;99138.19;;;9.72;90.89
42297;BME280;72430;47.456;19.016;2024-02-23T07:32:23;99140.22;;;9.70;89.70
42297;BME280;72430;47.456;19.016;2024-02-23T07:35:27;99133.78;;;9.63;89.34
42297;BME280;72430;47.456;19.016;2024-02-23T07:38:29;99135.44;;;9.56;90.81
42297;BME280;72430;47.456;19.016;2024-02-23T07:41:31;99139.84;;;9.65;89.55
42297;BME280;72430;47.456;19.016;2024-02-23T07:44:33;99137.31;;;9.63;90.34
42297;BME280;72430;47.456;19.016;2024-02-23T07:47:35;99145.34;;;9.55;89.41
42297;BME280;72430;47.456;19.016;2024-02-23T07:50:37;99143.25;;;9.75;88.53
42297;BME280;72430;47.456;19.016;2024-02-23T07:53:39;99145.06;;;9.66;91.20
42297;BME280;72430;47.456;19.016;2024-02-23T07:56:41;99142.53;;;9.65;92.26
42297;BME280;72430;47.456;19.016;2024-02-23T07:59:43;99145.09;;;9.75;91.35
42297;BME280;72430;47.456;19.016;2024-02-23T08:02:45;99150.03;;;9.53;91.66
42297;BME280;72430;47.456;19.016;2024-02-23T08:05:46;99154.88;;;9.49;93.33
42297;BME280;72430;47.456;19.016;2024-02-23T08:08:48;99148.72;;;9.57;91.05
42297;BME280;72430;47.456;19.016;2024-02-23T08:11:50;99152.94;;;9.60;92.71
42297;BME280;72430;47.456;19.016;2024-02-23T08:14:53;99157.16;;;9.71;91.64
42297;BME280;72430;47.456;19.016;2024-02-23T08:17:55;99160.63;;;9.54;93.30
42297;BME280;72430;47.456;19.016;2024-02-23T08:20:58;99156.69;;;9.75;91.99
42297;BME280;72430;47.456;19.016;2024-02-23T08:24:00;99162.59;;;9.96;91.29
42297;BME280;72430;47.456;19.016;2024-02-23T08:27:02;99166.44;;;9.85;92.03
42297;BME280;72430;47.456;19.016;2024-02-23T08:30:04;99168.31;;;9.84;91.92
42297;BME280;72430;47.456;19.016;2024-02-23T08:33:07;99164.13;;;9.90;91.85
42297;BME280;72430;47.456;19.016;2024-02-23T08:36:11;99167.88;;;10.05;90.78
42297;BME280;72430;47.456;19.016;2024-02-23T08:39:13;99172.94;;;10.17;90.71
42297;BME280;72430;47.456;19.016;2024-02-23T08:42:15;99185.03;;;10.13;90.73
42297;BME280;72430;47.456;19.016;2024-02-23T08:45:16;99183.69;;;10.17;90.58
42297;BME280;72430;47.456;19.016;2024-02-23T08:48:18;99184.88;;;10.31;90.02
42297;BME280;72430;47.456;19.016;2024-02-23T08:51:20;99183.03;;;10.40;89.31
42297;BME280;72430;47.456;19.016;2024-02-23T08:54:22;99182.38;;;10.29;90.13
42297;BME280;72430;47.456;19.016;2024-02-23T08:57:24;99191.63;;;10.27;90.33
42297;BME280;72430;47.456;19.016;2024-02-23T09:00:25;99198.69;;;10.36;89.31
42297;BME280;72430;47.456;19.016;2024-02-23T09:03:27;99197.50;;;10.39;89.29
42297;BME280;72430;47.456;19.016;2024-02-23T09:06:29;99192.50;;;10.44;90.03
42297;BME280;72430;47.456;19.016;2024-02-23T09:09:31;99185.63;;;10.50;89.12
42297;BME280;72430;47.456;19.016;2024-02-23T09:12:33;99199.75;;;10.52;89.23
42297;BME280;72430;47.456;19.016;2024-02-23T09:15:34;99196.56;;;10.56;89.56
42297;BME280;72430;47.456;19.016;2024-02-23T09:18:36;99196.22;;;10.68;88.20
42297;BME280;72430;47.456;19.016;2024-02-23T09:21:38;99208.69;;;10.52;88.07
42297;BME280;72430;47.456;19.016;2024-02-23T09:24:41;99201.47;;;10.61;88.52
42297;BME280;72430;47.456;19.016;2024-02-23T09:27:43;99207.47;;;10.46;87.78
42297;BME280;72430;47.456;19.016;2024-02-23T09:30:45;99204.13;;;10.53;87.00
42297;BME280;72430;47.456;19.016;2024-02-23T09:33:47;99194.22;;;10.53;87.43
42297;BME280;72430;47.456;19.016;2024-02-23T09:36:52;99201.63;;;10.68;87.49
42297;BME280;72430;47.456;19.016;2024-02-23T09:39:54;99202.97;;;10.72;88.83
42297;BME280;72430;47.456;19.016;2024-02-23T09:42:57;99206.00;;;10.77;87.51
42297;BME280;72430;47.456;19.016;2024-02-23T09:46:00;99209.00;;;10.74;87.54
42297;BME280;72430;47.456;19.016;2024-02-23T09:49:03;99213.06;;;10.78;87.42
42297;BME280;72430;47.456;19.016;2024-02-23T09:52:07;99211.03;;;10.72;89.20
42297;BME280;72430;47.456;19.016;2024-02-23T09:55:11;99214.06;;;10.77;89.36
42297;BME280;72430;47.456;19.016;2024-02-23T09:58:13;99215.75;;;10.70;89.16
42297;BME280;72430;47.456;19.016;2024-02-23T10:01:29;99215.94;;;10.68;89.40
42297;BME280;72430;47.456;19.016;2024-02-23T10:04:35;99215.59;;;10.88;90.14
42297;BME280;72430;47.456;19.016;2024-02-23T10:07:37;99219.63;;;10.92;88.94
42297;BME280;72430;47.456;19.016;2024-02-23T10:10:40;99218.63;;;11.10;88.24
42297;BME280;72430;47.456;19.016;2024-02-23T10:13:43;99215.41;;;11.14;90.09
42297;BME280;72430;47.456;19.016;2024-02-23T10:16:45;99214.75;;;11.12;89.86
42297;BME280;72430;47.456;19.016;2024-02-23T10:19:46;99213.53;;;11.23;90.44
42297;BME280;72430;47.456;19.016;2024-02-23T10:22:49;99224.16;;;11.25;88.08
42297;BME280;72430;47.456;19.016;2024-02-23T10:25:51;99222.31;;;11.17;90.07
42297;BME280;72430;47.456;19.016;2024-02-23T10:28:53;99225.81;;;11.26;89.82
42297;BME280;72430;47.456;19.016;2024-02-23T10:31:57;99224.47;;;11.30;88.66
42297;BME280;72430;47.456;19.016;2024-02-23T10:35:00;99219.97;;;11.14;90.31
42297;BME280;72430;47.456;19.016;2024-02-23T10:38:08;99228.88;;;11.23;91.38
42297;BME280;72430;47.456;19.016;2024-02-23T10:41:13;99223.31;;;11.33;91.07
42297;BME280;72430;47.456;19.016;2024-02-23T10:44:16;99225.34;;;11.22;93.13
42297;BME280;72430;47.456;19.016;2024-02-23T10:47:21;99221.06;;;11.53;90.37
42297;BME280;72430;47.456;19.016;2024-02-23T10:50:24;99216.03;;;11.41;92.08
42297;BME280;72430;47.456;19.016;2024-02-23T10:53:28;99227.63;;;11.59;91.59
42297;BME280;72430;47.456;19.016;2024-02-23T10:56:30;99220.88;;;11.63;89.28
42297;BME280;72430;47.456;19.016;2024-02-23T10:59:32;99223.22;;;11.66;91.75
42297;BME280;72430;47.456;19.016;2024-02-23T11:02:43;99219.66;;;11.74;90.83
42297;BME280;72430;47.456;19.016;2024-02-23T11:05:49;99223.16;;;11.91;87.09
42297;BME280;72430;47.456;19.016;2024-02-23T11:08:51;99223.59;;;12.03;87.11
42297;BME280;72430;47.456;19.016;2024-02-23T11:15:00;99220.31;;;11.76;87.14
42297;BME280;72430;47.456;19.016;2024-02-23T11:18:02;99221.75;;;11.95;86.39
42297;BME280;72430;47.456;19.016;2024-02-23T11:21:05;99223.06;;;12.07;84.99
42297;BME280;72430;47.456;19.016;2024-02-23T11:24:07;99223.06;;;12.07;84.57
42297;BME280;72430;47.456;19.016;2024-02-23T11:27:14;99229.16;;;12.10;87.20
42297;BME280;72430;47.456;19.016;2024-02-23T11:30:18;99219.16;;;12.18;88.50
42297;BME280;72430;47.456;19.016;2024-02-23T11:33:26;99217.88;;;11.98;83.21
42297;BME280;72430;47.456;19.016;2024-02-23T11:36:32;99220.03;;;12.11;84.21
42297;BME280;72430;47.456;19.016;2024-02-23T11:39:37;99220.88;;;12.11;87.07
42297;BME280;72430;47.456;19.016;2024-02-23T11:42:42;99206.81;;;12.24;88.75
42297;BME280;72430;47.456;19.016;2024-02-23T11:45:47;99209.97;;;12.36;87.33
42297;BME280;72430;47.456;19.016;2024-02-23T11:48:49;99209.66;;;12.31;86.80
42297;BME280;72430;47.456;19.016;2024-02-23T11:51:58;99206.94;;;12.31;83.79
42297;BME280;72430;47.456;19.016;2024-02-23T11:54:59;99203.09;;;12.25;86.31
42297;BME280;72430;47.456;19.016;2024-02-23T11:58:01;99192.44;;;12.32;86.22
42297;BME280;72430;47.456;19.016;2024-02-23T12:01:12;99195.63;;;12.35;79.56
42297;BME280;72430;47.456;19.016;2024-02-23T12:04:14;99199.09;;;12.21;79.63
42297;BME280;72430;47.456;19.016;2024-02-23T12:07:16;99203.22;;;12.32;78.40
42297;BME280;72430;47.456;19.016;2024-02-23T12:10:18;99191.41;;;12.33;81.01
42297;BME280;72430;47.456;19.016;2024-02-23T12:13:21;99192.91;;;12.35;79.62
42297;BME280;72430;47.456;19.016;2024-02-23T12:16:23;99190.84;;;12.46;76.16
42297;BME280;72430;47.456;19.016;2024-02-23T12:19:24;99184.78;;;12.67;77.25
42297;BME280;72430;47.456;19.016;2024-02-23T12:22:26;99183.91;;;12.67;76.22
42297;BME280;72430;47.456;19.016;2024-02-23T12:25:29;99184.53;;;12.54;74.25
42297;BME280;72430;47.456;19.016;2024-02-23T12:28:30;99178.16;;;12.46;75.51
42297;BME280;72430;47.456;19.016;2024-02-23T12:31:32;99185.47;;;12.38;75.36
42297;BME280;72430;47.456;19.016;2024-02-23T12:34:34;99186.19;;;12.31;75.25
42297;BME280;72430;47.456;19.016;2024-02-23T12:37:36;99196.47;;;12.36;75.08
42297;BME280;72430;47.456;19.016;2024-02-23T12:40:40;99196.31;;;12.29;75.77
42297;BME280;72430;47.456;19.016;2024-02-23T12:43:41;99191.31;;;12.26;75.28
42297;BME280;72430;47.456;19.016;2024-02-23T12:46:46;99200.84;;;12.37;75.79
42297;BME280;72430;47.456;19.016;2024-02-23T12:49:48;99192.84;;;12.20;75.06
42297;BME280;72430;47.456;19.016;2024-02-23T12:52:50;99190.69;;;12.39;75.49
42297;BME280;72430;47.456;19.016;2024-02-23T12:55:53;99196.22;;;12.46;75.14
42297;BME280;72430;47.456;19.016;2024-02-23T12:58:55;99202.13;;;12.18;77.97
42297;BME280;72430;47.456;19.016;2024-02-23T13:01:57;99196.97;;;12.31;75.89
42297;BME280;72430;47.456;19.016;2024-02-23T13:04:59;99190.75;;;12.31;76.46
42297;BME280;72430;47.456;19.016;2024-02-23T13:08:01;99196.72;;;12.18;77.17
42297;BME280;72430;47.456;19.016;2024-02-23T13:11:03;99197.75;;;12.17;77.59
42297;BME280;72430;47.456;19.016;2024-02-23T13:14:05;99196.38;;;12.21;78.28
42297;BME280;72430;47.456;19.016;2024-02-23T13:17:07;99208.38;;;12.18;77.49
42297;BME280;72430;47.456;19.016;2024-02-23T13:20:09;99211.63;;;12.05;77.02
42297;BME280;72430;47.456;19.016;2024-02-23T13:23:14;99213.16;;;12.08;77.50
42297;BME280;72430;47.456;19.016;2024-02-23T13:26:17;99212.66;;;11.96;78.61
42297;BME280;72430;47.456;19.016;2024-02-23T13:29:19;99209.44;;;12.01;78.03
42297;BME280;72430;47.456;19.016;2024-02-23T13:32:22;99202.69;;;12.05;77.89
42297;BME280;72430;47.456;19.016;2024-02-23T13:35:24;99192.41;;;12.08;77.69
42297;BME280;72430;47.456;19.016;2024-02-23T13:38:26;99193.38;;;12.16;76.89
42297;BME280;72430;47.456;19.016;2024-02-23T13:41:28;99187.03;;;12.08;77.29
42297;BME280;72430;47.456;19.016;2024-02-23T13:44:30;99189.03;;;12.06;77.44
42297;BME280;72430;47.456;19.016;2024-02-23T13:47:32;99191.06;;;12.04;78.35
42297;BME280;72430;47.456;19.016;2024-02-23T13:50:34;99187.88;;;12.01;77.88
42297;BME280;72430;47.456;19.016;2024-02-23T13:53:41;99174.72;;;12.06;77.32
42297;BME280;72430;47.456;19.016;2024-02-23T13:56:43;99163.28;;;11.95;79.18
42297;BME280;72430;47.456;19.016;2024-02-23T13:59:45;99169.16;;;11.99;78.43
42297;BME280;72430;47.456;19.016;2024-02-23T14:02:48;99173.47;;;12.17;77.96
42297;BME280;72430;47.456;19.016;2024-02-23T14:05:50;99164.22;;;12.11;79.05
42297;BME280;72430;47.456;19.016;2024-02-23T14:08:52;99166.63;;;12.06;80.27
42297;BME280;72430;47.456;19.016;2024-02-23T14:11:54;99159.03;;;12.10;79.65
42297;BME280;72430;47.456;19.016;2024-02-23T14:14:56;99158.00;;;12.11;80.83
42297;BME280;72430;47.456;19.016;2024-02-23T14:17:58;99157.41;;;12.24;79.14
42297;BME280;72430;47.456;19.016;2024-02-23T14:20:59;99163.88;;;12.14;80.31
42297;BME280;72430;47.456;19.016;2024-02-23T14:24:02;99166.25;;;12.09;80.22
42297;BME280;72430;47.456;19.016;2024-02-23T14:27:04;99173.69;;;12.07;78.49
42297;BME280;72430;47.456;19.016;2024-02-23T14:30:07;99169.31;;;11.98;79.69
42297;BME280;72430;47.456;19.016;2024-02-23T14:33:09;99164.81;;;11.90;80.84
42297;BME280;72430;47.456;19.016;2024-02-23T14:36:11;99162.97;;;11.90;80.69
42297;BME280;72430;47.456;19.016;2024-02-23T14:39:13;99163.97;;;11.89;80.76
42297;BME280;72430;47.456;19.016;2024-02-23T14:42:15;99163.66;;;11.84;81.29
42297;BME280;72430;47.456;19.016;2024-02-23T14:45:17;99161.63;;;11.86;80.88
42297;BME280;72430;47.456;19.016;2024-02-23T14:48:18;99159.63;;;11.88;80.17
42297;BME280;72430;47.456;19.016;2024-02-23T14:51:20;99162.31;;;11.88;80.48
42297;BME280;72430;47.456;19.016;2024-02-23T14:54:22;99152.41;;;11.80;81.64
42297;BME280;72430;47.456;19.016;2024-02-23T14:57:24;99157.09;;;11.87;80.78
42297;BME280;72430;47.456;19.016;2024-02-23T15:00:26;99159.28;;;11.83;80.75
42297;BME280;72430;47.456;19.016;2024-02-23T15:03:28;99163.88;;;11.74;81.54
42297;BME280;72430;47.456;19.016;2024-02-23T15:06:30;99150.75;;;11.71;81.52
42297;BME280;72430;47.456;19.016;2024-02-23T15:09:32;99149.38;;;11.75;80.21
42297;BME280;72430;47.456;19.016;2024-02-23T15:12:37;99152.09;;;11.67;80.07
42297;BME280;72430;47.456;19.016;2024-02-23T15:15:39;99155.47;;;11.69;79.45
42297;BME280;72430;47.456;19.016;2024-02-23T15:18:42;99143.84;;;11.68;80.25
42297;BME280;72430;47.456;19.016;2024-02-23T15:21:44;99143.81;;;11.77;79.90
42297;BME280;72430;47.456;19.016;2024-02-23T15:24:46;99145.66;;;11.76;78.15
42297;BME280;72430;47.456;19.016;2024-02-23T15:27:51;99155.66;;;11.67;78.78
42297;BME280;72430;47.456;19.016;2024-02-23T15:30:55;99148.22;;;11.69;78.54
42297;BME280;72430;47.456;19.016;2024-02-23T15:33:56;99147.72;;;11.66;78.28
42297;BME280;72430;47.456;19.016;2024-02-23T15:36:59;99150.41;;;11.74;76.96
42297;BME280;72430;47.456;19.016;2024-02-23T15:40:01;99153.28;;;11.73;76.41
42297;BME280;72430;47.456;19.016;2024-02-23T15:43:05;99158.97;;;11.78;76.50
42297;BME280;72430;47.456;19.016;2024-02-23T15:46:07;99151.22;;;11.75;75.55
42297;BME280;72430;47.456;19.016;2024-02-23T15:49:08;99144.81;;;11.76;75.83
42297;BME280;72430;47.456;19.016;2024-02-23T15:52:30;99154.47;;;11.70;75.06
42297;BME280;72430;47.456;19.016;2024-02-23T15:55:32;99151.44;;;11.65;76.36
42297;BME280;72430;47.456;19.016;2024-02-23T15:58:34;99158.50;;;11.66;75.73
42297;BME280;72430;47.456;19.016;2024-02-23T16:01:37;99150.22;;;11.76;75.54